Terminal Aerodrome Forecast
Issued by NWS Birmingham, AL

Home | Current Version | Previous Version | Text Only | Print | Product List | Glossary On
Versions: 1 2 3 4 5 6 7 8 9 10 11 12 13 14 15 16 17 18 19 20
000
FTUS44 KBMX 311100
TAFBHM
TAF
KBHM 311121Z 3112/0112 30003KT P6SM BKN070
     FM311600 32009KT P6SM SCT250
     FM312000 33015G24KT P6SM OVC040
     FM010400 33014KT P6SM SCT040=

USA.gov is the U.S. government's official web portal to all federal, state and local government web resources and services.